General Aviation Weather

Text Reports

Enter one or more of the following location identifiers separated by a space:

Zip Code, Four-Character ICAO or Three-Character IATA airport codes.

METAR - Aviation Routine Weather Report
YTRE - Taree,
Updated at 5:00 AM GMT on March 29, 2015 (4:00 PM AEDT):
METAR YTRE 290500Z AUTO 08011KT 9999 // NCD 25/18 Q1020
TAF - Terminal Area Forecast
YTRE - Taree,
Updated at 5:00 AM GMT on March 29, 2015 (4:00 PM AEDT):
TAF YTRE 290039Z 2902/2914 07005KT 9999 FEW020 SCT040=
Decoded:
ID: YTRE
REPORT TIME: 29  0:39
VALID TIME: 29 March AT 02:00Z to 29 March AT 14:00Z.
INITIAL WX
   WINDS: 70 AT 5
   CLOUDS: 20 FEW
   CLOUDS: 40 SCT
   COMMENTS: = 

PIREP - Pilot Weather Report
YTRE - Taree,
Updated at 5:00 AM GMT on March 29, 2015 (4:00 PM AEDT):
No PIREP is currently available for this location.
AIRMET - Airmens Meteorological Information
YTRE - Taree,
Updated at 5:00 AM GMT on March 29, 2015 (4:00 PM AEDT):
No AIRMET is currently available for this location.
SIGMET - Significant Meteorological Information
YTRE - Taree,
Updated at 5:00 AM GMT on March 29, 2015 (4:00 PM AEDT):
No SIGMET is currently available for this location.
NOTAM - Notice to Airmen
YTRE - Taree,
Updated at 5:00 AM GMT on March 29, 2015 (4:00 PM AEDT):
No NOTAM is currently available for this location.
Forecast Area
YTRE - Taree,
Updated at 5:00 AM GMT on March 29, 2015 (4:00 PM AEDT):
No NOTAM is currently available for this location.
Aviation Weather Maps